sensor_id;sensor_type;location;lat;lon;timestamp;temperature;humidity
70676;DHT22;59069;52.242;20.900;2022-07-10T00:01:01;14.66;78.33
70676;DHT22;59069;52.242;20.900;2022-07-10T00:03:27;14.65;78.50
70676;DHT22;59069;52.242;20.900;2022-07-10T00:05:52;14.65;78.69
70676;DHT22;59069;52.242;20.900;2022-07-10T00:08:17;14.60;78.87
70676;DHT22;59069;52.242;20.900;2022-07-10T00:10:43;14.57;79.05
70676;DHT22;59069;52.242;20.900;2022-07-10T00:13:08;14.56;79.26
70676;DHT22;59069;52.242;20.900;2022-07-10T00:15:33;14.50;79.48
70676;DHT22;59069;52.242;20.900;2022-07-10T00:17:59;14.46;79.76
70676;DHT22;59069;52.242;20.900;2022-07-10T00:20:24;14.42;80.01
70676;DHT22;59069;52.242;20.900;2022-07-10T00:22:50;14.39;80.26
70676;DHT22;59069;52.242;20.900;2022-07-10T00:25:15;14.36;80.42
70676;DHT22;59069;52.242;20.900;2022-07-10T00:27:41;14.32;80.63
70676;DHT22;59069;52.242;20.900;2022-07-10T00:30:08;14.29;80.79
70676;DHT22;59069;52.242;20.900;2022-07-10T00:32:33;14.28;80.96
70676;DHT22;59069;52.242;20.900;2022-07-10T00:34:59;14.24;81.16
70676;DHT22;59069;52.242;20.900;2022-07-10T00:37:24;14.24;81.29
70676;DHT22;59069;52.242;20.900;2022-07-10T00:39:50;14.19;81.44
70676;DHT22;59069;52.242;20.900;2022-07-10T00:42:15;14.16;81.61
70676;DHT22;59069;52.242;20.900;2022-07-10T00:44:42;14.15;81.78
70676;DHT22;59069;52.242;20.900;2022-07-10T00:47:09;14.12;82.00
70676;DHT22;59069;52.242;20.900;2022-07-10T00:49:37;14.06;82.15
70676;DHT22;59069;52.242;20.900;2022-07-10T00:52:06;14.05;82.31
70676;DHT22;59069;52.242;20.900;2022-07-10T00:54:34;14.05;82.41
70676;DHT22;59069;52.242;20.900;2022-07-10T00:57:00;14.02;82.58
70676;DHT22;59069;52.242;20.900;2022-07-10T00:59:28;14.01;82.80
70676;DHT22;59069;52.242;20.900;2022-07-10T01:01:53;14.00;82.95
70676;DHT22;59069;52.242;20.900;2022-07-10T01:04:19;13.98;83.05
70676;DHT22;59069;52.242;20.900;2022-07-10T01:06:45;14.00;83.18
70676;DHT22;59069;52.242;20.900;2022-07-10T01:09:11;13.98;83.26
70676;DHT22;59069;52.242;20.900;2022-07-10T01:11:36;13.98;83.33
70676;DHT22;59069;52.242;20.900;2022-07-10T01:14:02;13.97;83.43
70676;DHT22;59069;52.242;20.900;2022-07-10T01:16:28;13.97;83.50
70676;DHT22;59069;52.242;20.900;2022-07-10T01:18:55;13.97;83.58
70676;DHT22;59069;52.242;20.900;2022-07-10T01:21:32;13.94;83.61
70676;DHT22;59069;52.242;20.900;2022-07-10T01:23:58;13.97;83.67
70676;DHT22;59069;52.242;20.900;2022-07-10T01:26:24;13.94;83.72
70676;DHT22;59069;52.242;20.900;2022-07-10T01:28:51;13.94;83.76
70676;DHT22;59069;52.242;20.900;2022-07-10T01:31:25;13.92;83.90
70676;DHT22;59069;52.242;20.900;2022-07-10T01:33:51;13.92;84.09
70676;DHT22;59069;52.242;20.900;2022-07-10T01:36:17;13.92;84.17
70676;DHT22;59069;52.242;20.900;2022-07-10T01:38:42;13.92;84.30
70676;DHT22;59069;52.242;20.900;2022-07-10T01:41:09;13.92;84.42
70676;DHT22;59069;52.242;20.900;2022-07-10T01:43:35;13.91;84.55
70676;DHT22;59069;52.242;20.900;2022-07-10T01:46:02;13.91;84.62
70676;DHT22;59069;52.242;20.900;2022-07-10T01:48:29;13.88;84.76
70676;DHT22;59069;52.242;20.900;2022-07-10T01:50:54;13.88;84.82
70676;DHT22;59069;52.242;20.900;2022-07-10T01:53:19;13.91;84.85
70676;DHT22;59069;52.242;20.900;2022-07-10T01:55:45;13.92;84.88
70676;DHT22;59069;52.242;20.900;2022-07-10T01:58:10;13.91;84.86
70676;DHT22;59069;52.242;20.900;2022-07-10T02:00:35;13.92;84.88
70676;DHT22;59069;52.242;20.900;2022-07-10T02:03:01;13.94;84.86
70676;DHT22;59069;52.242;20.900;2022-07-10T02:05:45;13.92;84.88
70676;DHT22;59069;52.242;20.900;2022-07-10T02:08:10;13.92;84.90
70676;DHT22;59069;52.242;20.900;2022-07-10T02:10:35;13.92;84.87
70676;DHT22;59069;52.242;20.900;2022-07-10T02:13:01;13.94;84.90
70676;DHT22;59069;52.242;20.900;2022-07-10T02:15:26;13.92;84.89
70676;DHT22;59069;52.242;20.900;2022-07-10T02:17:51;13.92;84.87
70676;DHT22;59069;52.242;20.900;2022-07-10T02:20:17;13.94;84.85
70676;DHT22;59069;52.242;20.900;2022-07-10T02:22:42;13.94;84.89
70676;DHT22;59069;52.242;20.900;2022-07-10T02:25:08;13.89;84.94
70676;DHT22;59069;52.242;20.900;2022-07-10T02:27:34;13.91;84.96
70676;DHT22;59069;52.242;20.900;2022-07-10T02:29:59;13.91;84.97
70676;DHT22;59069;52.242;20.900;2022-07-10T02:32:24;13.88;85.02
70676;DHT22;59069;52.242;20.900;2022-07-10T02:34:50;13.86;85.11
70676;DHT22;59069;52.242;20.900;2022-07-10T02:37:15;13.85;85.17
70676;DHT22;59069;52.242;20.900;2022-07-10T02:39:40;13.85;85.24
70676;DHT22;59069;52.242;20.900;2022-07-10T02:42:06;13.82;85.23
70676;DHT22;59069;52.242;20.900;2022-07-10T02:44:31;13.84;85.19
70676;DHT22;59069;52.242;20.900;2022-07-10T02:46:57;13.82;85.20
70676;DHT22;59069;52.242;20.900;2022-07-10T02:49:22;13.84;85.16
70676;DHT22;59069;52.242;20.900;2022-07-10T02:51:48;13.81;85.21
70676;DHT22;59069;52.242;20.900;2022-07-10T02:54:13;13.82;85.18
70676;DHT22;59069;52.242;20.900;2022-07-10T02:56:38;13.82;85.22
70676;DHT22;59069;52.242;20.900;2022-07-10T02:59:04;13.84;85.24
70676;DHT22;59069;52.242;20.900;2022-07-10T03:01:31;13.84;85.16
70676;DHT22;59069;52.242;20.900;2022-07-10T03:03:57;13.88;85.00
70676;DHT22;59069;52.242;20.900;2022-07-10T03:06:23;13.89;84.93
70676;DHT22;59069;52.242;20.900;2022-07-10T03:08:49;13.88;84.84
70676;DHT22;59069;52.242;20.900;2022-07-10T03:11:14;13.88;84.83
70676;DHT22;59069;52.242;20.900;2022-07-10T03:13:40;13.88;84.73
70676;DHT22;59069;52.242;20.900;2022-07-10T03:16:05;13.86;84.83
70676;DHT22;59069;52.242;20.900;2022-07-10T03:18:31;13.86;84.89
70676;DHT22;59069;52.242;20.900;2022-07-10T03:20:56;13.84;84.82
70676;DHT22;59069;52.242;20.900;2022-07-10T03:23:22;13.85;85.04
70676;DHT22;59069;52.242;20.900;2022-07-10T03:25:47;13.86;85.04
70676;DHT22;59069;52.242;20.900;2022-07-10T03:28:13;13.91;85.07
70676;DHT22;59069;52.242;20.900;2022-07-10T03:30:38;13.92;85.00
70676;DHT22;59069;52.242;20.900;2022-07-10T03:33:04;13.95;84.97
70676;DHT22;59069;52.242;20.900;2022-07-10T03:35:29;13.97;85.02
70676;DHT22;59069;52.242;20.900;2022-07-10T03:37:56;14.02;85.06
70676;DHT22;59069;52.242;20.900;2022-07-10T03:40:22;14.06;85.05
70676;DHT22;59069;52.242;20.900;2022-07-10T03:42:47;14.09;84.97
70676;DHT22;59069;52.242;20.900;2022-07-10T03:45:13;14.16;84.91
70676;DHT22;59069;52.242;20.900;2022-07-10T03:47:38;14.24;84.77
70676;DHT22;59069;52.242;20.900;2022-07-10T03:50:04;14.24;84.66
70676;DHT22;59069;52.242;20.900;2022-07-10T03:52:30;14.25;84.20
70676;DHT22;59069;52.242;20.900;2022-07-10T03:54:56;14.28;84.23
70676;DHT22;59069;52.242;20.900;2022-07-10T03:57:22;14.28;84.09
70676;DHT22;59069;52.242;20.900;2022-07-10T04:00:06;14.24;84.19
70676;DHT22;59069;52.242;20.900;2022-07-10T04:02:32;14.29;84.40
70676;DHT22;59069;52.242;20.900;2022-07-10T04:04:57;14.29;84.53
70676;DHT22;59069;52.242;20.900;2022-07-10T04:07:22;14.36;84.47
70676;DHT22;59069;52.242;20.900;2022-07-10T04:09:48;14.45;84.46
70676;DHT22;59069;52.242;20.900;2022-07-10T04:12:13;14.60;84.62
70676;DHT22;59069;52.242;20.900;2022-07-10T04:14:38;14.70;84.07
70676;DHT22;59069;52.242;20.900;2022-07-10T04:17:04;14.76;83.37
70676;DHT22;59069;52.242;20.900;2022-07-10T04:19:29;14.80;82.97
70676;DHT22;59069;52.242;20.900;2022-07-10T04:21:54;14.79;82.40
70676;DHT22;59069;52.242;20.900;2022-07-10T04:24:20;14.83;81.93
70676;DHT22;59069;52.242;20.900;2022-07-10T04:26:45;14.87;81.75
70676;DHT22;59069;52.242;20.900;2022-07-10T04:29:11;14.87;81.50
70676;DHT22;59069;52.242;20.900;2022-07-10T04:31:36;14.87;81.33
70676;DHT22;59069;52.242;20.900;2022-07-10T04:34:01;14.88;81.16
70676;DHT22;59069;52.242;20.900;2022-07-10T04:36:27;14.93;81.06
70676;DHT22;59069;52.242;20.900;2022-07-10T04:38:53;14.96;80.85
70676;DHT22;59069;52.242;20.900;2022-07-10T04:41:18;14.94;80.54
70676;DHT22;59069;52.242;20.900;2022-07-10T04:43:44;14.97;80.35
70676;DHT22;59069;52.242;20.900;2022-07-10T04:46:10;15.01;80.53
70676;DHT22;59069;52.242;20.900;2022-07-10T04:48:35;15.04;79.83
70676;DHT22;59069;52.242;20.900;2022-07-10T04:51:01;15.03;79.71
70676;DHT22;59069;52.242;20.900;2022-07-10T04:53:26;15.14;79.55
70676;DHT22;59069;52.242;20.900;2022-07-10T04:55:51;15.17;78.46
70676;DHT22;59069;52.242;20.900;2022-07-10T04:58:17;15.18;78.02
70676;DHT22;59069;52.242;20.900;2022-07-10T05:00:42;15.20;77.37
70676;DHT22;59069;52.242;20.900;2022-07-10T05:03:07;15.21;77.01
70676;DHT22;59069;52.242;20.900;2022-07-10T05:05:33;15.21;76.86
70676;DHT22;59069;52.242;20.900;2022-07-10T05:07:58;15.28;76.44
70676;DHT22;59069;52.242;20.900;2022-07-10T05:10:24;15.31;76.53
70676;DHT22;59069;52.242;20.900;2022-07-10T05:12:49;15.45;76.64
70676;DHT22;59069;52.242;20.900;2022-07-10T05:15:14;15.62;76.40
70676;DHT22;59069;52.242;20.900;2022-07-10T05:17:40;15.69;75.48
70676;DHT22;59069;52.242;20.900;2022-07-10T05:20:05;15.72;74.35
70676;DHT22;59069;52.242;20.900;2022-07-10T05:22:31;15.73;73.94
70676;DHT22;59069;52.242;20.900;2022-07-10T05:24:56;15.72;73.73
70676;DHT22;59069;52.242;20.900;2022-07-10T05:27:22;15.72;73.97
70676;DHT22;59069;52.242;20.900;2022-07-10T05:29:47;15.81;74.12
70676;DHT22;59069;52.242;20.900;2022-07-10T05:32:13;15.85;74.19
70676;DHT22;59069;52.242;20.900;2022-07-10T05:34:39;15.92;73.47
70676;DHT22;59069;52.242;20.900;2022-07-10T05:37:05;15.93;73.12
70676;DHT22;59069;52.242;20.900;2022-07-10T05:39:32;15.97;72.67
70676;DHT22;59069;52.242;20.900;2022-07-10T05:41:57;16.05;72.18
70676;DHT22;59069;52.242;20.900;2022-07-10T05:44:23;16.07;71.75
70676;DHT22;59069;52.242;20.900;2022-07-10T05:46:49;16.12;71.57
70676;DHT22;59069;52.242;20.900;2022-07-10T05:49:14;16.19;71.17
70676;DHT22;59069;52.242;20.900;2022-07-10T05:51:39;16.20;70.95
70676;DHT22;59069;52.242;20.900;2022-07-10T05:54:05;16.26;71.09
70676;DHT22;59069;52.242;20.900;2022-07-10T05:56:30;16.34;70.50
70676;DHT22;59069;52.242;20.900;2022-07-10T05:58:56;16.38;70.14
70676;DHT22;59069;52.242;20.900;2022-07-10T06:01:22;16.41;69.82
70676;DHT22;59069;52.242;20.900;2022-07-10T06:03:48;16.44;69.76
70676;DHT22;59069;52.242;20.900;2022-07-10T06:06:14;16.47;69.93
70676;DHT22;59069;52.242;20.900;2022-07-10T06:08:43;16.53;70.02
70676;DHT22;59069;52.242;20.900;2022-07-10T06:11:08;16.54;70.35
70676;DHT22;59069;52.242;20.900;2022-07-10T06:13:34;16.63;70.48
70676;DHT22;59069;52.242;20.900;2022-07-10T06:15:59;16.64;70.30
70676;DHT22;59069;52.242;20.900;2022-07-10T06:18:25;16.70;70.21
70676;DHT22;59069;52.242;20.900;2022-07-10T06:20:50;16.77;70.02
70676;DHT22;59069;52.242;20.900;2022-07-10T06:23:15;16.75;69.88
70676;DHT22;59069;52.242;20.900;2022-07-10T06:25:41;16.77;69.46
70676;DHT22;59069;52.242;20.900;2022-07-10T06:28:06;16.77;69.58
70676;DHT22;59069;52.242;20.900;2022-07-10T06:30:32;16.71;69.34
70676;DHT22;59069;52.242;20.900;2022-07-10T06:32:57;16.67;69.48
70676;DHT22;59069;52.242;20.900;2022-07-10T06:35:23;16.65;69.74
70676;DHT22;59069;52.242;20.900;2022-07-10T06:37:48;16.65;70.13
70676;DHT22;59069;52.242;20.900;2022-07-10T06:40:14;16.68;70.43
70676;DHT22;59069;52.242;20.900;2022-07-10T06:42:40;16.72;70.48
70676;DHT22;59069;52.242;20.900;2022-07-10T06:45:06;16.74;70.36
70676;DHT22;59069;52.242;20.900;2022-07-10T06:47:31;16.78;70.18
70676;DHT22;59069;52.242;20.900;2022-07-10T06:50:15;16.79;69.95
70676;DHT22;59069;52.242;20.900;2022-07-10T06:52:41;16.82;69.82
70676;DHT22;59069;52.242;20.900;2022-07-10T06:55:07;16.85;69.83
70676;DHT22;59069;52.242;20.900;2022-07-10T06:57:33;16.88;69.74
70676;DHT22;59069;52.242;20.900;2022-07-10T06:59:58;16.94;69.88
70676;DHT22;59069;52.242;20.900;2022-07-10T07:02:24;16.99;69.21
70676;DHT22;59069;52.242;20.900;2022-07-10T07:04:49;17.04;68.42
70676;DHT22;59069;52.242;20.900;2022-07-10T07:07:15;17.15;67.67
70676;DHT22;59069;52.242;20.900;2022-07-10T07:09:41;17.22;67.01
70676;DHT22;59069;52.242;20.900;2022-07-10T07:12:07;17.32;66.70
70676;DHT22;59069;52.242;20.900;2022-07-10T07:14:33;17.43;66.59
70676;DHT22;59069;52.242;20.900;2022-07-10T07:16:58;17.50;65.72
70676;DHT22;59069;52.242;20.900;2022-07-10T07:19:35;17.62;65.10
70676;DHT22;59069;52.242;20.900;2022-07-10T07:22:23;17.67;64.61
70676;DHT22;59069;52.242;20.900;2022-07-10T07:25:08;17.76;64.59
70676;DHT22;59069;52.242;20.900;2022-07-10T07:27:34;17.83;64.24
70676;DHT22;59069;52.242;20.900;2022-07-10T07:30:04;17.93;64.10
70676;DHT22;59069;52.242;20.900;2022-07-10T07:32:31;18.02;63.91
70676;DHT22;59069;52.242;20.900;2022-07-10T07:34:57;18.11;63.08
70676;DHT22;59069;52.242;20.900;2022-07-10T07:37:23;18.21;62.97
70676;DHT22;59069;52.242;20.900;2022-07-10T07:39:49;18.37;62.51
70676;DHT22;59069;52.242;20.900;2022-07-10T07:42:14;18.45;61.44
70676;DHT22;59069;52.242;20.900;2022-07-10T07:44:40;18.41;60.74
70676;DHT22;59069;52.242;20.900;2022-07-10T07:47:05;18.32;60.07
70676;DHT22;59069;52.242;20.900;2022-07-10T07:49:30;18.30;60.12
70676;DHT22;59069;52.242;20.900;2022-07-10T07:51:56;18.30;59.71
70676;DHT22;59069;52.242;20.900;2022-07-10T07:54:21;18.27;59.83
70676;DHT22;59069;52.242;20.900;2022-07-10T07:56:47;18.25;59.92
70676;DHT22;59069;52.242;20.900;2022-07-10T07:59:12;18.22;59.64
70676;DHT22;59069;52.242;20.900;2022-07-10T08:01:38;18.32;60.02
70676;DHT22;59069;52.242;20.900;2022-07-10T08:04:03;18.44;59.94
70676;DHT22;59069;52.242;20.900;2022-07-10T08:06:29;18.55;58.90
70676;DHT22;59069;52.242;20.900;2022-07-10T08:08:54;18.58;57.86
70676;DHT22;59069;52.242;20.900;2022-07-10T08:11:20;18.55;56.92
70676;DHT22;59069;52.242;20.900;2022-07-10T08:13:45;18.47;56.70
70676;DHT22;59069;52.242;20.900;2022-07-10T08:16:10;18.35;56.75
70676;DHT22;59069;52.242;20.900;2022-07-10T08:18:37;18.24;57.57
70676;DHT22;59069;52.242;20.900;2022-07-10T08:21:02;18.12;58.73
70676;DHT22;59069;52.242;20.900;2022-07-10T08:23:28;18.08;59.92
70676;DHT22;59069;52.242;20.900;2022-07-10T08:25:53;18.07;60.52
70676;DHT22;59069;52.242;20.900;2022-07-10T08:28:19;18.07;60.71
70676;DHT22;59069;52.242;20.900;2022-07-10T08:30:44;18.07;61.34
70676;DHT22;59069;52.242;20.900;2022-07-10T08:33:10;18.10;61.58
70676;DHT22;59069;52.242;20.900;2022-07-10T08:35:35;18.10;61.03
70676;DHT22;59069;52.242;20.900;2022-07-10T08:38:01;18.08;60.64
70676;DHT22;59069;52.242;20.900;2022-07-10T08:40:34;18.20;61.59
70676;DHT22;59069;52.242;20.900;2022-07-10T08:43:00;18.20;60.20
70676;DHT22;59069;52.242;20.900;2022-07-10T08:45:27;18.17;59.91
70676;DHT22;59069;52.242;20.900;2022-07-10T08:47:56;18.08;59.82
70676;DHT22;59069;52.242;20.900;2022-07-10T08:50:23;18.05;59.92
70676;DHT22;59069;52.242;20.900;2022-07-10T08:53:04;18.04;59.82
70676;DHT22;59069;52.242;20.900;2022-07-10T08:55:32;18.17;60.21
70676;DHT22;59069;52.242;20.900;2022-07-10T08:57:58;18.38;59.86
70676;DHT22;59069;52.242;20.900;2022-07-10T09:00:24;18.66;60.40
70676;DHT22;59069;52.242;20.900;2022-07-10T09:02:50;19.02;59.14
70676;DHT22;59069;52.242;20.900;2022-07-10T09:05:15;19.20;56.16
70676;DHT22;59069;52.242;20.900;2022-07-10T09:07:41;19.24;54.89
70676;DHT22;59069;52.242;20.900;2022-07-10T09:10:10;19.22;54.43
70676;DHT22;59069;52.242;20.900;2022-07-10T09:12:50;19.09;54.74
70676;DHT22;59069;52.242;20.900;2022-07-10T09:15:17;18.99;55.18
70676;DHT22;59069;52.242;20.900;2022-07-10T09:18:09;18.85;54.32
70676;DHT22;59069;52.242;20.900;2022-07-10T09:20:39;18.93;55.27
70676;DHT22;59069;52.242;20.900;2022-07-10T09:23:21;19.20;54.71
70676;DHT22;59069;52.242;20.900;2022-07-10T09:25:48;19.35;52.60
70676;DHT22;59069;52.242;20.900;2022-07-10T09:28:16;19.37;51.42
70676;DHT22;59069;52.242;20.900;2022-07-10T09:30:42;19.37;51.11
70676;DHT22;59069;52.242;20.900;2022-07-10T09:46:32;18.86;55.13
70676;DHT22;59069;52.242;20.900;2022-07-10T09:51:30;18.77;55.17
70676;DHT22;59069;52.242;20.900;2022-07-10T09:53:56;18.79;54.42
70676;DHT22;59069;52.242;20.900;2022-07-10T09:56:24;18.83;53.80
70676;DHT22;59069;52.242;20.900;2022-07-10T09:58:52;18.91;53.43
70676;DHT22;59069;52.242;20.900;2022-07-10T10:01:22;19.04;53.59
70676;DHT22;59069;52.242;20.900;2022-07-10T10:03:49;19.17;52.89
70676;DHT22;59069;52.242;20.900;2022-07-10T10:06:15;19.24;52.36
70676;DHT22;59069;52.242;20.900;2022-07-10T10:08:56;19.19;51.72
70676;DHT22;59069;52.242;20.900;2022-07-10T10:11:26;19.16;51.31
70676;DHT22;59069;52.242;20.900;2022-07-10T10:13:52;19.17;51.46
70676;DHT22;59069;52.242;20.900;2022-07-10T10:16:19;19.19;51.19
70676;DHT22;59069;52.242;20.900;2022-07-10T10:18:44;19.28;51.10
70676;DHT22;59069;52.242;20.900;2022-07-10T10:21:29;19.33;51.51
70676;DHT22;59069;52.242;20.900;2022-07-10T10:23:55;19.47;51.15
70676;DHT22;59069;52.242;20.900;2022-07-10T10:26:23;19.53;48.99
70676;DHT22;59069;52.242;20.900;2022-07-10T10:28:52;19.61;47.83
70676;DHT22;59069;52.242;20.900;2022-07-10T10:31:18;19.78;47.55
70676;DHT22;59069;52.242;20.900;2022-07-10T10:33:45;19.82;46.85
70676;DHT22;59069;52.242;20.900;2022-07-10T10:36:13;19.81;48.00
70676;DHT22;59069;52.242;20.900;2022-07-10T10:41:30;20.21;48.30
70676;DHT22;59069;52.242;20.900;2022-07-10T10:49:23;20.45;48.16
70676;DHT22;59069;52.242;20.900;2022-07-10T10:52:04;20.52;48.26
70676;DHT22;59069;52.242;20.900;2022-07-10T10:57:43;20.46;47.82
70676;DHT22;59069;52.242;20.900;2022-07-10T11:00:30;20.37;47.38
70676;DHT22;59069;52.242;20.900;2022-07-10T11:03:17;20.32;48.06
70676;DHT22;59069;52.242;20.900;2022-07-10T11:05:43;20.46;48.24
70676;DHT22;59069;52.242;20.900;2022-07-10T11:08:10;20.56;48.13
70676;DHT22;59069;52.242;20.900;2022-07-10T11:10:44;20.70;46.90
70676;DHT22;59069;52.242;20.900;2022-07-10T11:13:13;20.70;45.93
70676;DHT22;59069;52.242;20.900;2022-07-10T11:18:10;20.53;46.12
70676;DHT22;59069;52.242;20.900;2022-07-10T11:20:39;20.45;46.76
70676;DHT22;59069;52.242;20.900;2022-07-10T11:25:53;20.36;47.67
70676;DHT22;59069;52.242;20.900;2022-07-10T11:31:09;20.62;48.64
70676;DHT22;59069;52.242;20.900;2022-07-10T11:33:42;20.93;48.53
70676;DHT22;59069;52.242;20.900;2022-07-10T11:38:56;21.52;47.23
70676;DHT22;59069;52.242;20.900;2022-07-10T11:41:23;21.76;47.27
70676;DHT22;59069;52.242;20.900;2022-07-10T11:43:56;22.09;46.89
70676;DHT22;59069;52.242;20.900;2022-07-10T11:46:26;22.32;45.06
70676;DHT22;59069;52.242;20.900;2022-07-10T11:48:53;22.29;43.77
70676;DHT22;59069;52.242;20.900;2022-07-10T11:51:26;22.20;43.26
70676;DHT22;59069;52.242;20.900;2022-07-10T11:54:35;22.16;42.81
70676;DHT22;59069;52.242;20.900;2022-07-10T11:56:46;22.00;41.62
70676;DHT22;59069;52.242;20.900;2022-07-10T11:59:14;21.93;41.46
70676;DHT22;59069;52.242;20.900;2022-07-10T12:01:48;21.92;42.31
70676;DHT22;59069;52.242;20.900;2022-07-10T12:04:15;22.02;41.66
70676;DHT22;59069;52.242;20.900;2022-07-10T12:06:46;22.02;41.70
70676;DHT22;59069;52.242;20.900;2022-07-10T12:09:13;22.00;41.62
70676;DHT22;59069;52.242;20.900;2022-07-10T12:11:40;22.06;42.37
70676;DHT22;59069;52.242;20.900;2022-07-10T12:14:14;22.21;42.85
70676;DHT22;59069;52.242;20.900;2022-07-10T12:16:42;22.40;42.95
70676;DHT22;59069;52.242;20.900;2022-07-10T12:19:10;22.64;42.39
70676;DHT22;59069;52.242;20.900;2022-07-10T12:21:36;22.84;42.17
70676;DHT22;59069;52.242;20.900;2022-07-10T12:24:02;22.99;40.66
70676;DHT22;59069;52.242;20.900;2022-07-10T12:26:34;23.02;40.43
70676;DHT22;59069;52.242;20.900;2022-07-10T12:29:00;23.18;41.04
70676;DHT22;59069;52.242;20.900;2022-07-10T12:31:28;23.36;40.88
70676;DHT22;59069;52.242;20.900;2022-07-10T12:33:58;23.19;40.16
70676;DHT22;59069;52.242;20.900;2022-07-10T12:36:26;22.71;41.89
70676;DHT22;59069;52.242;20.900;2022-07-10T12:39:05;22.13;44.32
70676;DHT22;59069;52.242;20.900;2022-07-10T12:41:30;21.56;47.61
70676;DHT22;59069;52.242;20.900;2022-07-10T12:43:56;21.15;50.63
70676;DHT22;59069;52.242;20.900;2022-07-10T12:46:23;20.83;51.57
70676;DHT22;59069;52.242;20.900;2022-07-10T12:49:09;20.62;53.56
70676;DHT22;59069;52.242;20.900;2022-07-10T12:51:45;20.57;54.71
70676;DHT22;59069;52.242;20.900;2022-07-10T12:54:31;20.36;54.91
70676;DHT22;59069;52.242;20.900;2022-07-10T12:56:57;20.22;55.05
70676;DHT22;59069;52.242;20.900;2022-07-10T12:59:23;20.08;55.52
70676;DHT22;59069;52.242;20.900;2022-07-10T13:01:48;20.01;55.91
70676;DHT22;59069;52.242;20.900;2022-07-10T13:04:14;20.09;57.45
70676;DHT22;59069;52.242;20.900;2022-07-10T13:06:41;20.45;59.60
70676;DHT22;59069;52.242;20.900;2022-07-10T13:09:23;20.83;57.42
70676;DHT22;59069;52.242;20.900;2022-07-10T13:11:50;20.83;55.83
70676;DHT22;59069;52.242;20.900;2022-07-10T13:14:18;20.67;55.16
70676;DHT22;59069;52.242;20.900;2022-07-10T13:16:43;20.46;55.81
70676;DHT22;59069;52.242;20.900;2022-07-10T13:19:08;20.30;56.55
70676;DHT22;59069;52.242;20.900;2022-07-10T13:21:34;20.04;57.80
70676;DHT22;59069;52.242;20.900;2022-07-10T13:24:00;19.58;59.18
70676;DHT22;59069;52.242;20.900;2022-07-10T13:26:25;19.07;60.27
70676;DHT22;59069;52.242;20.900;2022-07-10T13:28:51;18.68;61.38
70676;DHT22;59069;52.242;20.900;2022-07-10T13:31:17;18.30;62.64
70676;DHT22;59069;52.242;20.900;2022-07-10T13:33:42;17.93;64.01
70676;DHT22;59069;52.242;20.900;2022-07-10T13:36:07;17.74;65.40
70676;DHT22;59069;52.242;20.900;2022-07-10T13:38:34;17.59;66.48
70676;DHT22;59069;52.242;20.900;2022-07-10T13:40:59;17.42;67.23
70676;DHT22;59069;52.242;20.900;2022-07-10T13:43:25;17.33;68.46
70676;DHT22;59069;52.242;20.900;2022-07-10T13:45:56;17.36;69.40
70676;DHT22;59069;52.242;20.900;2022-07-10T13:48:21;17.47;70.34
70676;DHT22;59069;52.242;20.900;2022-07-10T13:50:47;17.66;70.74
70676;DHT22;59069;52.242;20.900;2022-07-10T13:53:12;17.87;69.69
70676;DHT22;59069;52.242;20.900;2022-07-10T13:55:38;18.12;69.04
70676;DHT22;59069;52.242;20.900;2022-07-10T13:58:04;18.55;68.99
70676;DHT22;59069;52.242;20.900;2022-07-10T14:00:29;18.92;68.49
70676;DHT22;59069;52.242;20.900;2022-07-10T14:02:55;19.27;67.56
70676;DHT22;59069;52.242;20.900;2022-07-10T14:05:23;19.50;65.04
70676;DHT22;59069;52.242;20.900;2022-07-10T14:07:48;19.79;66.90
70676;DHT22;59069;52.242;20.900;2022-07-10T14:10:14;20.04;64.18
70676;DHT22;59069;52.242;20.900;2022-07-10T14:12:40;20.19;62.72
70676;DHT22;59069;52.242;20.900;2022-07-10T14:15:07;20.29;61.50
70676;DHT22;59069;52.242;20.900;2022-07-10T14:17:32;20.32;59.68
70676;DHT22;59069;52.242;20.900;2022-07-10T14:19:57;20.12;58.35
70676;DHT22;59069;52.242;20.900;2022-07-10T14:22:23;19.75;57.82
70676;DHT22;59069;52.242;20.900;2022-07-10T14:24:50;19.47;58.31
70676;DHT22;59069;52.242;20.900;2022-07-10T14:27:16;19.19;59.04
70676;DHT22;59069;52.242;20.900;2022-07-10T14:29:42;18.95;59.89
70676;DHT22;59069;52.242;20.900;2022-07-10T14:32:07;18.72;60.49
70676;DHT22;59069;52.242;20.900;2022-07-10T14:34:33;18.55;60.55
70676;DHT22;59069;52.242;20.900;2022-07-10T14:36:58;18.37;60.71
70676;DHT22;59069;52.242;20.900;2022-07-10T14:39:24;18.20;60.94
70676;DHT22;59069;52.242;20.900;2022-07-10T14:41:49;18.04;61.32
70676;DHT22;59069;52.242;20.900;2022-07-10T14:44:15;17.94;61.81
70676;DHT22;59069;52.242;20.900;2022-07-10T14:46:40;17.80;62.20
70676;DHT22;59069;52.242;20.900;2022-07-10T14:49:05;17.66;62.49
70676;DHT22;59069;52.242;20.900;2022-07-10T14:51:31;17.57;63.10
70676;DHT22;59069;52.242;20.900;2022-07-10T14:53:57;17.50;63.60
70676;DHT22;59069;52.242;20.900;2022-07-10T14:56:23;17.47;63.99
70676;DHT22;59069;52.242;20.900;2022-07-10T14:58:49;17.45;64.25
70676;DHT22;59069;52.242;20.900;2022-07-10T15:01:15;17.43;64.79
70676;DHT22;59069;52.242;20.900;2022-07-10T15:03:41;17.42;64.92
70676;DHT22;59069;52.242;20.900;2022-07-10T15:06:07;17.43;64.81
70676;DHT22;59069;52.242;20.900;2022-07-10T15:08:32;17.38;64.75
70676;DHT22;59069;52.242;20.900;2022-07-10T15:10:59;17.32;64.85
70676;DHT22;59069;52.242;20.900;2022-07-10T15:13:25;17.30;65.03
70676;DHT22;59069;52.242;20.900;2022-07-10T15:15:50;17.28;64.82
70676;DHT22;59069;52.242;20.900;2022-07-10T15:18:17;17.20;63.88
70676;DHT22;59069;52.242;20.900;2022-07-10T15:20:42;17.11;63.98
70676;DHT22;59069;52.242;20.900;2022-07-10T15:23:08;17.19;64.78
70676;DHT22;59069;52.242;20.900;2022-07-10T15:25:33;17.23;64.66
70676;DHT22;59069;52.242;20.900;2022-07-10T15:27:59;17.32;64.85
70676;DHT22;59069;52.242;20.900;2022-07-10T15:30:24;17.36;64.78
70676;DHT22;59069;52.242;20.900;2022-07-10T15:32:50;17.46;65.31
70676;DHT22;59069;52.242;20.900;2022-07-10T15:35:17;17.66;66.36
70676;DHT22;59069;52.242;20.900;2022-07-10T15:37:42;17.87;65.81
70676;DHT22;59069;52.242;20.900;2022-07-10T15:40:08;17.97;65.64
70676;DHT22;59069;52.242;20.900;2022-07-10T15:42:33;18.02;64.88
70676;DHT22;59069;52.242;20.900;2022-07-10T15:44:59;17.97;64.31
70676;DHT22;59069;52.242;20.900;2022-07-10T15:47:24;17.94;64.14
70676;DHT22;59069;52.242;20.900;2022-07-10T15:49:50;17.73;63.23
70676;DHT22;59069;52.242;20.900;2022-07-10T15:52:15;17.53;63.19